sensor_id;sensor_type;location;lat;lon;timestamp;P1;durP1;ratioP1;P2;durP2;ratioP2
6414;SDS011;3240;48.790;9.210;2022-11-15T00:00:10;11.20;;;6.63;;
6414;SDS011;3240;48.790;9.210;2022-11-15T00:02:39;9.40;;;6.30;;
6414;SDS011;3240;48.790;9.210;2022-11-15T00:05:07;13.47;;;7.00;;
6414;SDS011;3240;48.790;9.210;2022-11-15T00:07:35;14.93;;;6.60;;
6414;SDS011;3240;48.790;9.210;2022-11-15T00:10:04;11.10;;;6.73;;
6414;SDS011;3240;48.790;9.210;2022-11-15T00:12:32;9.63;;;5.90;;
6414;SDS011;3240;48.790;9.210;2022-11-15T00:15:00;11.27;;;6.07;;
6414;SDS011;3240;48.790;9.210;2022-11-15T00:17:29;9.80;;;6.00;;
6414;SDS011;3240;48.790;9.210;2022-11-15T00:19:57;11.93;;;6.33;;
6414;SDS011;3240;48.790;9.210;2022-11-15T00:22:30;9.83;;;6.27;;
6414;SDS011;3240;48.790;9.210;2022-11-15T00:24:54;9.33;;;5.67;;
6414;SDS011;3240;48.790;9.210;2022-11-15T00:27:22;12.50;;;6.17;;
6414;SDS011;3240;48.790;9.210;2022-11-15T00:29:50;11.27;;;7.00;;
6414;SDS011;3240;48.790;9.210;2022-11-15T00:32:19;8.10;;;5.70;;
6414;SDS011;3240;48.790;9.210;2022-11-15T00:34:47;11.87;;;6.57;;
6414;SDS011;3240;48.790;9.210;2022-11-15T00:37:15;9.43;;;6.03;;
6414;SDS011;3240;48.790;9.210;2022-11-15T00:39:44;10.73;;;5.77;;
6414;SDS011;3240;48.790;9.210;2022-11-15T00:42:12;12.17;;;5.63;;
6414;SDS011;3240;48.790;9.210;2022-11-15T00:44:40;10.90;;;5.70;;
6414;SDS011;3240;48.790;9.210;2022-11-15T00:47:09;13.40;;;6.03;;
6414;SDS011;3240;48.790;9.210;2022-11-15T00:49:37;15.00;;;6.43;;
6414;SDS011;3240;48.790;9.210;2022-11-15T00:52:05;9.80;;;5.73;;
6414;SDS011;3240;48.790;9.210;2022-11-15T00:54:34;6.43;;;5.00;;
6414;SDS011;3240;48.790;9.210;2022-11-15T00:57:02;12.33;;;5.07;;
6414;SDS011;3240;48.790;9.210;2022-11-15T00:59:30;10.30;;;5.80;;
6414;SDS011;3240;48.790;9.210;2022-11-15T01:01:59;9.30;;;6.30;;
6414;SDS011;3240;48.790;9.210;2022-11-15T01:04:27;10.30;;;5.83;;
6414;SDS011;3240;48.790;9.210;2022-11-15T01:06:55;9.27;;;5.70;;
6414;SDS011;3240;48.790;9.210;2022-11-15T01:09:24;11.10;;;5.90;;
6414;SDS011;3240;48.790;9.210;2022-11-15T01:11:52;8.50;;;5.50;;
6414;SDS011;3240;48.790;9.210;2022-11-15T01:14:20;9.63;;;5.90;;
6414;SDS011;3240;48.790;9.210;2022-11-15T01:16:49;10.10;;;5.83;;
6414;SDS011;3240;48.790;9.210;2022-11-15T01:19:17;8.47;;;5.33;;
6414;SDS011;3240;48.790;9.210;2022-11-15T01:21:48;11.07;;;5.97;;
6414;SDS011;3240;48.790;9.210;2022-11-15T01:24:14;10.37;;;5.80;;
6414;SDS011;3240;48.790;9.210;2022-11-15T01:26:42;10.43;;;6.27;;
6414;SDS011;3240;48.790;9.210;2022-11-15T01:29:10;8.40;;;5.73;;
6414;SDS011;3240;48.790;9.210;2022-11-15T01:31:39;11.90;;;6.03;;
6414;SDS011;3240;48.790;9.210;2022-11-15T01:34:07;13.13;;;6.20;;
6414;SDS011;3240;48.790;9.210;2022-11-15T01:36:36;14.20;;;7.40;;
6414;SDS011;3240;48.790;9.210;2022-11-15T01:39:04;12.80;;;6.87;;
6414;SDS011;3240;48.790;9.210;2022-11-15T01:41:32;14.33;;;5.97;;
6414;SDS011;3240;48.790;9.210;2022-11-15T01:46:35;11.43;;;5.93;;
6414;SDS011;3240;48.790;9.210;2022-11-15T01:49:08;8.43;;;5.50;;
6414;SDS011;3240;48.790;9.210;2022-11-15T01:51:32;11.60;;;5.40;;
6414;SDS011;3240;48.790;9.210;2022-11-15T01:54:02;10.03;;;5.37;;
6414;SDS011;3240;48.790;9.210;2022-11-15T01:56:30;8.50;;;5.07;;
6414;SDS011;3240;48.790;9.210;2022-11-15T01:58:58;14.43;;;5.40;;
6414;SDS011;3240;48.790;9.210;2022-11-15T02:01:25;8.30;;;4.90;;
6414;SDS011;3240;48.790;9.210;2022-11-15T02:03:58;8.73;;;5.40;;
6414;SDS011;3240;48.790;9.210;2022-11-15T02:06:25;10.03;;;5.43;;
6414;SDS011;3240;48.790;9.210;2022-11-15T02:08:53;6.70;;;4.80;;
6414;SDS011;3240;48.790;9.210;2022-11-15T02:11:22;9.53;;;5.90;;
6414;SDS011;3240;48.790;9.210;2022-11-15T02:13:50;9.27;;;5.70;;
6414;SDS011;3240;48.790;9.210;2022-11-15T02:16:36;10.90;;;5.73;;
6414;SDS011;3240;48.790;9.210;2022-11-15T02:21:39;7.63;;;5.30;;
6414;SDS011;3240;48.790;9.210;2022-11-15T02:24:14;10.70;;;4.80;;
6414;SDS011;3240;48.790;9.210;2022-11-15T02:29:29;10.03;;;5.93;;
6414;SDS011;3240;48.790;9.210;2022-11-15T02:31:56;10.50;;;5.50;;
6414;SDS011;3240;48.790;9.210;2022-11-15T02:34:28;10.60;;;5.60;;
6414;SDS011;3240;48.790;9.210;2022-11-15T02:37:00;12.97;;;5.33;;
6414;SDS011;3240;48.790;9.210;2022-11-15T02:39:27;10.77;;;5.57;;
6414;SDS011;3240;48.790;9.210;2022-11-15T02:41:54;12.23;;;5.50;;
6414;SDS011;3240;48.790;9.210;2022-11-15T02:44:25;9.30;;;4.80;;
6414;SDS011;3240;48.790;9.210;2022-11-15T02:46:54;13.43;;;5.57;;
6414;SDS011;3240;48.790;9.210;2022-11-15T02:49:27;8.90;;;5.50;;
6414;SDS011;3240;48.790;9.210;2022-11-15T02:51:55;11.07;;;5.60;;
6414;SDS011;3240;48.790;9.210;2022-11-15T02:54:25;11.20;;;5.60;;
6414;SDS011;3240;48.790;9.210;2022-11-15T02:56:53;10.47;;;5.73;;
6414;SDS011;3240;48.790;9.210;2022-11-15T02:59:31;11.90;;;5.63;;
6414;SDS011;3240;48.790;9.210;2022-11-15T03:02:06;9.77;;;5.90;;
6414;SDS011;3240;48.790;9.210;2022-11-15T03:07:15;8.10;;;5.80;;
6414;SDS011;3240;48.790;9.210;2022-11-15T03:09:50;9.93;;;6.20;;
6414;SDS011;3240;48.790;9.210;2022-11-15T03:12:25;8.70;;;5.57;;
6414;SDS011;3240;48.790;9.210;2022-11-15T03:14:54;11.43;;;6.10;;
6414;SDS011;3240;48.790;9.210;2022-11-15T03:17:25;12.60;;;5.77;;
6414;SDS011;3240;48.790;9.210;2022-11-15T03:19:53;9.67;;;5.50;;
6414;SDS011;3240;48.790;9.210;2022-11-15T03:22:22;7.97;;;5.57;;
6414;SDS011;3240;48.790;9.210;2022-11-15T03:24:52;7.93;;;5.70;;
6414;SDS011;3240;48.790;9.210;2022-11-15T03:27:19;13.20;;;5.70;;
6414;SDS011;3240;48.790;9.210;2022-11-15T03:29:48;10.10;;;4.77;;
6414;SDS011;3240;48.790;9.210;2022-11-15T03:32:16;9.27;;;5.20;;
6414;SDS011;3240;48.790;9.210;2022-11-15T03:34:46;11.43;;;5.70;;
6414;SDS011;3240;48.790;9.210;2022-11-15T03:37:13;7.93;;;4.93;;
6414;SDS011;3240;48.790;9.210;2022-11-15T03:39:41;9.27;;;5.10;;
6414;SDS011;3240;48.790;9.210;2022-11-15T03:42:15;9.30;;;5.30;;
6414;SDS011;3240;48.790;9.210;2022-11-15T03:44:40;9.47;;;4.77;;
6414;SDS011;3240;48.790;9.210;2022-11-15T03:47:09;10.97;;;5.63;;
6414;SDS011;3240;48.790;9.210;2022-11-15T03:49:36;9.00;;;5.47;;
6414;SDS011;3240;48.790;9.210;2022-11-15T03:52:04;10.07;;;5.60;;
6414;SDS011;3240;48.790;9.210;2022-11-15T03:54:32;10.20;;;5.63;;
6414;SDS011;3240;48.790;9.210;2022-11-15T03:57:01;9.23;;;5.17;;
6414;SDS011;3240;48.790;9.210;2022-11-15T03:59:29;10.30;;;5.67;;
6414;SDS011;3240;48.790;9.210;2022-11-15T04:01:57;10.63;;;5.93;;
6414;SDS011;3240;48.790;9.210;2022-11-15T04:04:26;11.25;;;6.60;;
6414;SDS011;3240;48.790;9.210;2022-11-15T04:06:54;9.27;;;6.23;;
6414;SDS011;3240;48.790;9.210;2022-11-15T04:09:22;11.50;;;5.57;;
6414;SDS011;3240;48.790;9.210;2022-11-15T04:11:51;8.50;;;5.67;;
6414;SDS011;3240;48.790;9.210;2022-11-15T04:14:19;7.63;;;5.40;;
6414;SDS011;3240;48.790;9.210;2022-11-15T04:16:47;6.67;;;5.30;;
6414;SDS011;3240;48.790;9.210;2022-11-15T04:19:16;14.10;;;5.40;;
6414;SDS011;3240;48.790;9.210;2022-11-15T04:21:59;7.50;;;5.30;;
6414;SDS011;3240;48.790;9.210;2022-11-15T04:24:33;10.20;;;5.63;;
6414;SDS011;3240;48.790;9.210;2022-11-15T04:27:01;12.20;;;5.13;;
6414;SDS011;3240;48.790;9.210;2022-11-15T04:29:30;7.87;;;5.07;;
6414;SDS011;3240;48.790;9.210;2022-11-15T04:32:03;10.03;;;5.20;;
6414;SDS011;3240;48.790;9.210;2022-11-15T04:34:30;8.43;;;4.93;;
6414;SDS011;3240;48.790;9.210;2022-11-15T04:36:59;9.17;;;5.00;;
6414;SDS011;3240;48.790;9.210;2022-11-15T04:39:33;8.30;;;4.60;;
6414;SDS011;3240;48.790;9.210;2022-11-15T04:42:01;10.40;;;4.93;;
6414;SDS011;3240;48.790;9.210;2022-11-15T04:44:29;6.37;;;4.70;;
6414;SDS011;3240;48.790;9.210;2022-11-15T04:46:58;7.43;;;4.87;;
6414;SDS011;3240;48.790;9.210;2022-11-15T04:49:26;9.10;;;6.57;;
6414;SDS011;3240;48.790;9.210;2022-11-15T04:51:54;8.70;;;4.90;;
6414;SDS011;3240;48.790;9.210;2022-11-15T04:54:23;9.37;;;4.87;;
6414;SDS011;3240;48.790;9.210;2022-11-15T04:56:51;10.83;;;5.27;;
6414;SDS011;3240;48.790;9.210;2022-11-15T04:59:19;9.17;;;5.13;;
6414;SDS011;3240;48.790;9.210;2022-11-15T05:01:48;11.57;;;5.97;;
6414;SDS011;3240;48.790;9.210;2022-11-15T05:04:16;10.17;;;6.30;;
6414;SDS011;3240;48.790;9.210;2022-11-15T05:06:47;13.00;;;6.10;;
6414;SDS011;3240;48.790;9.210;2022-11-15T05:09:16;10.53;;;5.90;;
6414;SDS011;3240;48.790;9.210;2022-11-15T05:11:43;9.23;;;6.17;;
6414;SDS011;3240;48.790;9.210;2022-11-15T05:14:11;12.70;;;5.40;;
6414;SDS011;3240;48.790;9.210;2022-11-15T05:16:40;12.20;;;5.97;;
6414;SDS011;3240;48.790;9.210;2022-11-15T05:19:08;9.40;;;5.47;;
6414;SDS011;3240;48.790;9.210;2022-11-15T05:21:36;12.63;;;6.33;;
6414;SDS011;3240;48.790;9.210;2022-11-15T05:24:05;22.27;;;7.10;;
6414;SDS011;3240;48.790;9.210;2022-11-15T05:26:33;13.93;;;6.40;;
6414;SDS011;3240;48.790;9.210;2022-11-15T05:29:01;11.43;;;6.20;;
6414;SDS011;3240;48.790;9.210;2022-11-15T05:31:30;11.90;;;6.30;;
6414;SDS011;3240;48.790;9.210;2022-11-15T05:33:58;13.60;;;6.73;;
6414;SDS011;3240;48.790;9.210;2022-11-15T05:36:29;12.53;;;6.80;;
6414;SDS011;3240;48.790;9.210;2022-11-15T05:38:55;11.33;;;6.07;;
6414;SDS011;3240;48.790;9.210;2022-11-15T05:41:26;13.27;;;6.30;;
6414;SDS011;3240;48.790;9.210;2022-11-15T05:43:53;10.47;;;5.53;;
6414;SDS011;3240;48.790;9.210;2022-11-15T05:46:21;10.20;;;6.70;;
6414;SDS011;3240;48.790;9.210;2022-11-15T05:48:50;13.63;;;5.90;;
6414;SDS011;3240;48.790;9.210;2022-11-15T05:51:18;17.47;;;6.27;;
6414;SDS011;3240;48.790;9.210;2022-11-15T05:53:46;11.90;;;6.30;;
6414;SDS011;3240;48.790;9.210;2022-11-15T05:56:15;13.60;;;7.30;;
6414;SDS011;3240;48.790;9.210;2022-11-15T05:58:43;11.30;;;6.07;;
6414;SDS011;3240;48.790;9.210;2022-11-15T06:01:11;10.73;;;5.77;;
6414;SDS011;3240;48.790;9.210;2022-11-15T06:03:40;17.50;;;7.27;;
6414;SDS011;3240;48.790;9.210;2022-11-15T06:06:08;16.30;;;7.77;;
6414;SDS011;3240;48.790;9.210;2022-11-15T06:08:36;13.77;;;7.00;;
6414;SDS011;3240;48.790;9.210;2022-11-15T06:11:05;14.87;;;7.60;;
6414;SDS011;3240;48.790;9.210;2022-11-15T06:13:33;17.67;;;7.03;;
6414;SDS011;3240;48.790;9.210;2022-11-15T06:16:01;17.93;;;6.73;;
6414;SDS011;3240;48.790;9.210;2022-11-15T06:18:31;13.53;;;6.20;;
6414;SDS011;3240;48.790;9.210;2022-11-15T06:20:59;18.20;;;7.07;;
6414;SDS011;3240;48.790;9.210;2022-11-15T06:23:27;12.07;;;6.80;;
6414;SDS011;3240;48.790;9.210;2022-11-15T06:25:57;12.60;;;6.50;;
6414;SDS011;3240;48.790;9.210;2022-11-15T06:28:23;15.70;;;5.97;;
6414;SDS011;3240;48.790;9.210;2022-11-15T06:30:51;15.77;;;7.40;;
6414;SDS011;3240;48.790;9.210;2022-11-15T06:33:20;9.70;;;5.57;;
6414;SDS011;3240;48.790;9.210;2022-11-15T06:35:48;13.63;;;5.80;;
6414;SDS011;3240;48.790;9.210;2022-11-15T06:38:16;12.33;;;7.23;;
6414;SDS011;3240;48.790;9.210;2022-11-15T06:40:45;17.80;;;6.97;;
6414;SDS011;3240;48.790;9.210;2022-11-15T06:43:13;24.10;;;7.27;;
6414;SDS011;3240;48.790;9.210;2022-11-15T06:45:41;14.10;;;7.70;;
6414;SDS011;3240;48.790;9.210;2022-11-15T06:48:10;13.57;;;9.10;;
6414;SDS011;3240;48.790;9.210;2022-11-15T06:50:38;13.10;;;7.03;;
6414;SDS011;3240;48.790;9.210;2022-11-15T06:53:06;14.90;;;8.07;;
6414;SDS011;3240;48.790;9.210;2022-11-15T06:55:35;14.13;;;7.60;;
6414;SDS011;3240;48.790;9.210;2022-11-15T06:58:03;14.90;;;7.37;;
6414;SDS011;3240;48.790;9.210;2022-11-15T07:00:31;15.50;;;7.30;;
6414;SDS011;3240;48.790;9.210;2022-11-15T07:03:00;13.93;;;8.37;;
6414;SDS011;3240;48.790;9.210;2022-11-15T07:05:28;10.97;;;6.67;;
6414;SDS011;3240;48.790;9.210;2022-11-15T07:07:57;10.43;;;6.10;;
6414;SDS011;3240;48.790;9.210;2022-11-15T07:10:25;13.00;;;6.80;;
6414;SDS011;3240;48.790;9.210;2022-11-15T07:12:53;10.80;;;7.23;;
6414;SDS011;3240;48.790;9.210;2022-11-15T07:15:23;13.70;;;6.33;;
6414;SDS011;3240;48.790;9.210;2022-11-15T07:17:51;10.93;;;6.37;;
6414;SDS011;3240;48.790;9.210;2022-11-15T07:20:19;9.97;;;6.50;;
6414;SDS011;3240;48.790;9.210;2022-11-15T07:22:47;12.17;;;6.97;;
6414;SDS011;3240;48.790;9.210;2022-11-15T07:25:15;18.43;;;7.90;;
6414;SDS011;3240;48.790;9.210;2022-11-15T07:27:44;12.20;;;6.30;;
6414;SDS011;3240;48.790;9.210;2022-11-15T07:30:12;10.43;;;5.60;;
6414;SDS011;3240;48.790;9.210;2022-11-15T07:32:41;12.27;;;6.40;;
6414;SDS011;3240;48.790;9.210;2022-11-15T07:35:09;11.33;;;5.97;;
6414;SDS011;3240;48.790;9.210;2022-11-15T07:37:38;10.17;;;6.40;;
6414;SDS011;3240;48.790;9.210;2022-11-15T07:40:06;10.50;;;6.70;;
6414;SDS011;3240;48.790;9.210;2022-11-15T07:42:35;16.67;;;7.90;;
6414;SDS011;3240;48.790;9.210;2022-11-15T07:45:09;14.67;;;6.80;;
6414;SDS011;3240;48.790;9.210;2022-11-15T07:47:38;17.27;;;8.50;;
6414;SDS011;3240;48.790;9.210;2022-11-15T07:50:06;15.37;;;7.40;;
6414;SDS011;3240;48.790;9.210;2022-11-15T07:52:34;15.77;;;7.37;;
6414;SDS011;3240;48.790;9.210;2022-11-15T07:55:03;14.10;;;7.63;;
6414;SDS011;3240;48.790;9.210;2022-11-15T07:57:31;10.40;;;6.70;;
6414;SDS011;3240;48.790;9.210;2022-11-15T08:00:00;15.80;;;6.30;;
6414;SDS011;3240;48.790;9.210;2022-11-15T08:02:28;10.03;;;6.00;;
6414;SDS011;3240;48.790;9.210;2022-11-15T08:04:56;18.80;;;7.13;;
6414;SDS011;3240;48.790;9.210;2022-11-15T08:07:26;11.80;;;7.03;;
6414;SDS011;3240;48.790;9.210;2022-11-15T08:09:53;14.27;;;7.60;;
6414;SDS011;3240;48.790;9.210;2022-11-15T08:12:21;17.20;;;7.90;;
6414;SDS011;3240;48.790;9.210;2022-11-15T08:14:50;10.10;;;6.63;;
6414;SDS011;3240;48.790;9.210;2022-11-15T08:17:18;14.67;;;6.70;;
6414;SDS011;3240;48.790;9.210;2022-11-15T08:19:46;17.20;;;7.83;;
6414;SDS011;3240;48.790;9.210;2022-11-15T08:22:15;14.60;;;6.60;;
6414;SDS011;3240;48.790;9.210;2022-11-15T08:24:43;11.77;;;6.47;;
6414;SDS011;3240;48.790;9.210;2022-11-15T08:27:11;11.20;;;5.73;;
6414;SDS011;3240;48.790;9.210;2022-11-15T08:29:43;12.53;;;6.30;;
6414;SDS011;3240;48.790;9.210;2022-11-15T08:32:12;11.57;;;6.50;;
6414;SDS011;3240;48.790;9.210;2022-11-15T08:34:40;12.73;;;6.00;;
6414;SDS011;3240;48.790;9.210;2022-11-15T08:37:08;9.97;;;5.67;;
6414;SDS011;3240;48.790;9.210;2022-11-15T08:39:37;12.10;;;7.00;;
6414;SDS011;3240;48.790;9.210;2022-11-15T08:42:05;11.43;;;5.90;;
6414;SDS011;3240;48.790;9.210;2022-11-15T08:44:33;14.83;;;6.70;;
6414;SDS011;3240;48.790;9.210;2022-11-15T08:47:01;10.73;;;5.70;;
6414;SDS011;3240;48.790;9.210;2022-11-15T08:49:30;11.87;;;6.40;;
6414;SDS011;3240;48.790;9.210;2022-11-15T08:51:58;12.03;;;6.23;;
6414;SDS011;3240;48.790;9.210;2022-11-15T08:54:27;14.97;;;6.50;;
6414;SDS011;3240;48.790;9.210;2022-11-15T08:56:55;11.43;;;6.37;;
6414;SDS011;3240;48.790;9.210;2022-11-15T08:59:23;8.20;;;5.43;;
6414;SDS011;3240;48.790;9.210;2022-11-15T09:01:52;13.70;;;5.93;;
6414;SDS011;3240;48.790;9.210;2022-11-15T09:04:20;11.87;;;6.17;;
6414;SDS011;3240;48.790;9.210;2022-11-15T09:06:48;12.73;;;6.00;;
6414;SDS011;3240;48.790;9.210;2022-11-15T09:09:17;8.37;;;5.97;;
6414;SDS011;3240;48.790;9.210;2022-11-15T09:11:45;14.10;;;7.13;;
6414;SDS011;3240;48.790;9.210;2022-11-15T09:14:13;17.17;;;7.10;;
6414;SDS011;3240;48.790;9.210;2022-11-15T09:16:42;12.60;;;6.77;;
6414;SDS011;3240;48.790;9.210;2022-11-15T09:19:10;14.50;;;7.70;;
6414;SDS011;3240;48.790;9.210;2022-11-15T09:21:38;18.23;;;7.30;;
6414;SDS011;3240;48.790;9.210;2022-11-15T09:24:07;14.00;;;7.97;;
6414;SDS011;3240;48.790;9.210;2022-11-15T09:26:35;14.70;;;7.53;;
6414;SDS011;3240;48.790;9.210;2022-11-15T09:29:04;14.63;;;7.00;;
6414;SDS011;3240;48.790;9.210;2022-11-15T09:31:32;15.98;;;8.48;;
6414;SDS011;3240;48.790;9.210;2022-11-15T09:34:00;10.10;;;5.30;;
6414;SDS011;3240;48.790;9.210;2022-11-15T09:36:28;14.70;;;5.43;;
6414;SDS011;3240;48.790;9.210;2022-11-15T09:38:57;7.37;;;5.20;;
6414;SDS011;3240;48.790;9.210;2022-11-15T09:41:31;10.40;;;4.67;;
6414;SDS011;3240;48.790;9.210;2022-11-15T09:46:52;9.03;;;4.47;;
6414;SDS011;3240;48.790;9.210;2022-11-15T09:49:15;6.37;;;4.63;;
6414;SDS011;3240;48.790;9.210;2022-11-15T09:51:45;7.60;;;4.60;;
6414;SDS011;3240;48.790;9.210;2022-11-15T09:54:25;14.83;;;5.30;;
6414;SDS011;3240;48.790;9.210;2022-11-15T09:56:50;8.77;;;4.70;;
6414;SDS011;3240;48.790;9.210;2022-11-15T09:59:39;12.03;;;4.67;;
6414;SDS011;3240;48.790;9.210;2022-11-15T10:04:47;9.67;;;4.87;;
6414;SDS011;3240;48.790;9.210;2022-11-15T10:07:20;14.37;;;4.50;;
6414;SDS011;3240;48.790;9.210;2022-11-15T10:09:50;8.40;;;4.60;;
6414;SDS011;3240;48.790;9.210;2022-11-15T10:12:16;7.63;;;4.53;;
6414;SDS011;3240;48.790;9.210;2022-11-15T10:14:45;9.00;;;5.40;;
6414;SDS011;3240;48.790;9.210;2022-11-15T10:17:18;11.77;;;4.97;;
6414;SDS011;3240;48.790;9.210;2022-11-15T10:22:24;7.20;;;4.57;;
6414;SDS011;3240;48.790;9.210;2022-11-15T10:24:49;6.73;;;3.90;;
6414;SDS011;3240;48.790;9.210;2022-11-15T10:27:18;11.53;;;4.50;;
6414;SDS011;3240;48.790;9.210;2022-11-15T10:29:48;7.10;;;3.87;;
6414;SDS011;3240;48.790;9.210;2022-11-15T10:32:16;6.43;;;4.10;;
6414;SDS011;3240;48.790;9.210;2022-11-15T10:34:44;9.63;;;4.70;;
6414;SDS011;3240;48.790;9.210;2022-11-15T10:37:12;9.30;;;5.00;;
6414;SDS011;3240;48.790;9.210;2022-11-15T10:39:40;10.97;;;5.13;;
6414;SDS011;3240;48.790;9.210;2022-11-15T10:42:15;15.97;;;6.63;;
6414;SDS011;3240;48.790;9.210;2022-11-15T10:44:43;14.13;;;6.50;;
6414;SDS011;3240;48.790;9.210;2022-11-15T10:47:23;26.17;;;7.73;;
6414;SDS011;3240;48.790;9.210;2022-11-15T10:49:54;17.33;;;6.80;;
6414;SDS011;3240;48.790;9.210;2022-11-15T10:52:21;16.60;;;6.90;;
6414;SDS011;3240;48.790;9.210;2022-11-15T10:54:52;16.23;;;6.93;;
6414;SDS011;3240;48.790;9.210;2022-11-15T10:57:20;22.93;;;6.40;;
6414;SDS011;3240;48.790;9.210;2022-11-15T10:59:49;13.67;;;6.60;;
6414;SDS011;3240;48.790;9.210;2022-11-15T11:02:26;13.20;;;5.87;;
6414;SDS011;3240;48.790;9.210;2022-11-15T11:04:50;10.77;;;5.80;;
6414;SDS011;3240;48.790;9.210;2022-11-15T11:07:21;13.27;;;5.90;;
6414;SDS011;3240;48.790;9.210;2022-11-15T11:09:49;13.40;;;5.10;;
6414;SDS011;3240;48.790;9.210;2022-11-15T11:12:16;9.87;;;6.20;;
6414;SDS011;3240;48.790;9.210;2022-11-15T11:14:44;10.10;;;5.40;;
6414;SDS011;3240;48.790;9.210;2022-11-15T11:17:16;12.50;;;5.78;;
6414;SDS011;3240;48.790;9.210;2022-11-15T11:19:49;18.70;;;7.17;;
6414;SDS011;3240;48.790;9.210;2022-11-15T11:22:18;10.37;;;5.83;;
6414;SDS011;3240;48.790;9.210;2022-11-15T11:24:48;14.30;;;6.40;;
6414;SDS011;3240;48.790;9.210;2022-11-15T11:27:18;11.93;;;5.30;;
6414;SDS011;3240;48.790;9.210;2022-11-15T11:30:04;12.53;;;5.70;;
6414;SDS011;3240;48.790;9.210;2022-11-15T11:32:39;11.20;;;6.10;;
6414;SDS011;3240;48.790;9.210;2022-11-15T11:35:08;14.00;;;5.63;;
6414;SDS011;3240;48.790;9.210;2022-11-15T11:37:39;17.97;;;5.80;;
6414;SDS011;3240;48.790;9.210;2022-11-15T11:40:12;8.43;;;5.23;;
6414;SDS011;3240;48.790;9.210;2022-11-15T11:42:42;11.63;;;6.30;;
6414;SDS011;3240;48.790;9.210;2022-11-15T11:46:19;11.77;;;5.97;;
6414;SDS011;3240;48.790;9.210;2022-11-15T11:48:00;11.10;;;5.80;;
6414;SDS011;3240;48.790;9.210;2022-11-15T11:50:26;17.30;;;5.73;;
6414;SDS011;3240;48.790;9.210;2022-11-15T11:54:01;12.23;;;7.10;;
6414;SDS011;3240;48.790;9.210;2022-11-15T11:55:39;15.43;;;7.40;;
6414;SDS011;3240;48.790;9.210;2022-11-15T11:58:12;10.03;;;6.03;;
6414;SDS011;3240;48.790;9.210;2022-11-15T12:00:40;13.77;;;5.93;;
6414;SDS011;3240;48.790;9.210;2022-11-15T12:03:09;11.10;;;5.90;;
6414;SDS011;3240;48.790;9.210;2022-11-15T12:05:39;12.03;;;5.37;;
6414;SDS011;3240;48.790;9.210;2022-11-15T12:10:57;9.10;;;5.47;;
6414;SDS011;3240;48.790;9.210;2022-11-15T12:13:24;10.10;;;5.00;;
6414;SDS011;3240;48.790;9.210;2022-11-15T12:15:53;9.43;;;4.87;;
6414;SDS011;3240;48.790;9.210;2022-11-15T12:18:19;8.17;;;5.13;;
6414;SDS011;3240;48.790;9.210;2022-11-15T12:20:51;11.87;;;5.50;;
6414;SDS011;3240;48.790;9.210;2022-11-15T12:23:19;13.27;;;5.53;;
6414;SDS011;3240;48.790;9.210;2022-11-15T12:25:48;9.83;;;4.90;;
6414;SDS011;3240;48.790;9.210;2022-11-15T12:28:17;12.67;;;5.57;;
6414;SDS011;3240;48.790;9.210;2022-11-15T12:30:44;9.27;;;4.80;;
6414;SDS011;3240;48.790;9.210;2022-11-15T12:35:56;10.97;;;5.43;;
6414;SDS011;3240;48.790;9.210;2022-11-15T12:38:15;15.53;;;5.67;;
6414;SDS011;3240;48.790;9.210;2022-11-15T12:41:11;8.83;;;4.80;;
6414;SDS011;3240;48.790;9.210;2022-11-15T12:43:36;10.43;;;5.70;;
6414;SDS011;3240;48.790;9.210;2022-11-15T12:46:02;11.03;;;5.70;;
6414;SDS011;3240;48.790;9.210;2022-11-15T12:51:21;11.73;;;5.33;;
6414;SDS011;3240;48.790;9.210;2022-11-15T12:53:48;8.67;;;4.80;;
6414;SDS011;3240;48.790;9.210;2022-11-15T12:56:18;11.00;;;5.70;;
6414;SDS011;3240;48.790;9.210;2022-11-15T12:58:47;11.23;;;5.37;;
6414;SDS011;3240;48.790;9.210;2022-11-15T13:08:57;8.40;;;4.67;;
6414;SDS011;3240;48.790;9.210;2022-11-15T13:14:00;13.50;;;4.17;;
6414;SDS011;3240;48.790;9.210;2022-11-15T13:16:28;8.37;;;4.10;;
6414;SDS011;3240;48.790;9.210;2022-11-15T13:18:56;10.33;;;3.60;;
6414;SDS011;3240;48.790;9.210;2022-11-15T13:21:25;11.83;;;3.87;;
6414;SDS011;3240;48.790;9.210;2022-11-15T13:23:59;6.37;;;3.90;;
6414;SDS011;3240;48.790;9.210;2022-11-15T13:26:27;11.57;;;4.00;;
6414;SDS011;3240;48.790;9.210;2022-11-15T13:28:58;6.47;;;3.83;;
6414;SDS011;3240;48.790;9.210;2022-11-15T13:31:29;7.07;;;3.57;;
6414;SDS011;3240;48.790;9.210;2022-11-15T13:33:59;9.30;;;3.80;;
6414;SDS011;3240;48.790;9.210;2022-11-15T13:36:27;7.37;;;4.07;;
6414;SDS011;3240;48.790;9.210;2022-11-15T13:38:56;6.53;;;3.60;;
6414;SDS011;3240;48.790;9.210;2022-11-15T13:41:24;6.40;;;4.00;;
6414;SDS011;3240;48.790;9.210;2022-11-15T13:43:52;7.30;;;4.10;;
6414;SDS011;3240;48.790;9.210;2022-11-15T13:46:22;8.57;;;3.80;;
6414;SDS011;3240;48.790;9.210;2022-11-15T13:48:53;13.03;;;4.60;;
6414;SDS011;3240;48.790;9.210;2022-11-15T13:51:52;15.70;;;4.40;;
6414;SDS011;3240;48.790;9.210;2022-11-15T13:55:12;13.17;;;4.93;;
6414;SDS011;3240;48.790;9.210;2022-11-15T13:56:52;12.03;;;5.43;;
6414;SDS011;3240;48.790;9.210;2022-11-15T13:59:23;7.30;;;4.23;;
6414;SDS011;3240;48.790;9.210;2022-11-15T14:01:47;9.87;;;5.63;;
6414;SDS011;3240;48.790;9.210;2022-11-15T14:04:18;7.50;;;4.47;;
6414;SDS011;3240;48.790;9.210;2022-11-15T14:06:47;9.13;;;4.77;;
6414;SDS011;3240;48.790;9.210;2022-11-15T14:09:16;12.03;;;4.97;;
6414;SDS011;3240;48.790;9.210;2022-11-15T14:11:49;8.30;;;5.13;;
6414;SDS011;3240;48.790;9.210;2022-11-15T14:14:17;8.67;;;4.80;;
6414;SDS011;3240;48.790;9.210;2022-11-15T14:16:46;11.00;;;5.60;;
6414;SDS011;3240;48.790;9.210;2022-11-15T14:19:35;6.70;;;5.20;;
6414;SDS011;3240;48.790;9.210;2022-11-15T14:22:08;7.40;;;5.30;;
6414;SDS011;3240;48.790;9.210;2022-11-15T14:24:36;11.20;;;5.73;;
6414;SDS011;3240;48.790;9.210;2022-11-15T14:27:40;7.40;;;5.43;;
6414;SDS011;3240;48.790;9.210;2022-11-15T14:29:51;7.13;;;5.10;;
6414;SDS011;3240;48.790;9.210;2022-11-15T14:32:22;9.10;;;5.67;;
6414;SDS011;3240;48.790;9.210;2022-11-15T14:34:53;16.73;;;6.70;;
6414;SDS011;3240;48.790;9.210;2022-11-15T14:37:19;11.50;;;5.63;;
6414;SDS011;3240;48.790;9.210;2022-11-15T14:39:46;7.40;;;5.17;;
6414;SDS011;3240;48.790;9.210;2022-11-15T14:42:14;9.70;;;5.13;;
6414;SDS011;3240;48.790;9.210;2022-11-15T14:44:43;12.53;;;5.93;;
6414;SDS011;3240;48.790;9.210;2022-11-15T14:47:11;8.82;;;6.05;;
6414;SDS011;3240;48.790;9.210;2022-11-15T14:49:39;11.40;;;5.80;;
6414;SDS011;3240;48.790;9.210;2022-11-15T14:52:16;10.47;;;5.60;;
6414;SDS011;3240;48.790;9.210;2022-11-15T14:54:39;10.37;;;5.30;;
6414;SDS011;3240;48.790;9.210;2022-11-15T14:57:07;9.27;;;5.60;;
6414;SDS011;3240;48.790;9.210;2022-11-15T14:59:35;8.50;;;5.30;;
6414;SDS011;3240;48.790;9.210;2022-11-15T15:02:08;8.20;;;4.97;;
6414;SDS011;3240;48.790;9.210;2022-11-15T15:04:32;10.23;;;4.20;;
6414;SDS011;3240;48.790;9.210;2022-11-15T15:07:00;8.80;;;4.27;;
6414;SDS011;3240;48.790;9.210;2022-11-15T15:09:29;9.13;;;4.60;;
6414;SDS011;3240;48.790;9.210;2022-11-15T15:11:57;7.33;;;3.97;;
6414;SDS011;3240;48.790;9.210;2022-11-15T15:14:25;8.20;;;4.20;;
6414;SDS011;3240;48.790;9.210;2022-11-15T15:16:54;9.20;;;4.20;;
6414;SDS011;3240;48.790;9.210;2022-11-15T15:19:22;12.47;;;5.20;;
6414;SDS011;3240;48.790;9.210;2022-11-15T15:21:50;7.03;;;4.57;;
6414;SDS011;3240;48.790;9.210;2022-11-15T15:24:19;7.90;;;4.00;;
6414;SDS011;3240;48.790;9.210;2022-11-15T15:26:47;6.50;;;3.97;;
6414;SDS011;3240;48.790;9.210;2022-11-15T15:29:15;6.67;;;4.23;;
6414;SDS011;3240;48.790;9.210;2022-11-15T15:31:44;7.87;;;4.30;;
6414;SDS011;3240;48.790;9.210;2022-11-15T15:34:13;12.13;;;4.20;;
6414;SDS011;3240;48.790;9.210;2022-11-15T15:36:41;8.50;;;4.00;;
6414;SDS011;3240;48.790;9.210;2022-11-15T15:39:10;10.50;;;4.90;;
6414;SDS011;3240;48.790;9.210;2022-11-15T15:41:38;6.93;;;3.80;;
6414;SDS011;3240;48.790;9.210;2022-11-15T15:44:06;8.47;;;4.97;;
6414;SDS011;3240;48.790;9.210;2022-11-15T15:46:35;6.17;;;4.20;;
6414;SDS011;3240;48.790;9.210;2022-11-15T15:49:03;7.20;;;4.57;;
6414;SDS011;3240;48.790;9.210;2022-11-15T15:51:32;7.70;;;4.67;;
6414;SDS011;3240;48.790;9.210;2022-11-15T15:54:00;7.17;;;3.83;;